Time;durP1;ratioP1;P1;durP2;ratioP2;P2;SDS_P1;SDS_P2;PMS_P1;PMS_P2;Temp;Humidity;BMP_temperature;BMP_pressure;BME280_temperature;BME280_humidity;BME280_pressure;Samples;Min_cycle;Max_cycle;Signal;HPM_P1;HPM_P2
2022/04/04 00:02:24;;;;;;;13.40;7.33;;;;;;;1.06;51.53;100043.96;1522843;91;25622;-67
2022/04/04 00:04:50;;;;;;;13.25;6.92;;;;;;;1.04;51.41;100034.59;1569831;88;25860;-67
2022/04/04 00:07:23;;;;;;;20.55;10.20;;;;;;;1.03;51.44;100031.14;1593821;88;26534;-68
2022/04/04 00:09:49;;;;;;;16.12;8.50;;;;;;;1.01;51.54;100035.92;1581482;88;25936;-68
2022/04/04 00:12:16;;;;;;;16.35;7.42;;;;;;;1.01;51.76;100033.80;1601768;88;25434;-68
2022/04/04 00:14:43;;;;;;;20.40;10.48;;;;;;;0.97;51.67;100031.34;1593845;87;25839;-68
2022/04/04 00:17:10;;;;;;;15.30;7.12;;;;;;;0.97;51.77;100034.00;1595876;87;25844;-68
2022/04/04 00:19:36;;;;;;;13.98;7.70;;;;;;;0.95;51.63;100026.80;1585777;88;27335;-69
2022/04/04 00:22:04;;;;;;;16.27;7.58;;;;;;;0.92;51.75;100029.45;1580528;88;25523;-69
2022/04/04 00:24:31;;;;;;;18.10;9.08;;;;;;;0.87;51.51;100025.38;1600174;88;25555;-68
2022/04/04 00:26:57;;;;;;;14.83;7.10;;;;;;;0.86;51.99;100034.44;1594364;88;25937;-68
2022/04/04 00:29:25;;;;;;;22.55;11.85;;;;;;;0.84;52.05;100024.56;1578996;88;25664;-68
2022/04/04 00:31:52;;;;;;;13.22;7.30;;;;;;;0.81;52.41;100016.53;1568406;88;27459;-67
2022/04/04 00:34:19;;;;;;;13.93;6.85;;;;;;;0.82;52.35;100026.14;1586104;87;25863;-67
2022/04/04 00:36:47;;;;;;;16.10;8.70;;;;;;;0.80;51.97;100024.27;1586790;88;25453;-67
2022/04/04 00:39:19;;;;;;;17.17;10.10;;;;;;;0.79;52.04;100026.64;1593541;87;26258;-67
2022/04/04 00:41:48;;;;;;;17.85;9.80;;;;;;;0.78;52.26;100021.02;1594065;87;25909;-67
2022/04/04 00:44:15;;;;;;;13.78;7.62;;;;;;;0.79;52.32;100023.18;1598278;88;27535;-67
2022/04/04 00:46:43;;;;;;;18.07;9.55;;;;;;;0.78;52.61;100021.02;1590754;88;25955;-67
2022/04/04 00:49:11;;;;;;;17.20;9.40;;;;;;;0.77;52.38;100018.61;1579511;88;25810;-67
2022/04/04 00:51:37;;;;;;;14.20;6.90;;;;;;;0.76;52.34;100015.16;1598793;87;25639;-68
2022/04/04 00:54:05;;;;;;;14.43;7.55;;;;;;;0.77;52.20;100022.09;1585170;88;25848;-68
2022/04/04 00:56:33;;;;;;;12.15;6.37;;;;;;;0.76;52.12;100017.02;1577029;89;27921;-69
2022/04/04 00:59:01;;;;;;;11.53;6.78;;;;;;;0.71;52.34;100019.89;1586178;87;25515;-68
2022/04/04 01:01:28;;;;;;;12.10;7.05;;;;;;;0.70;51.78;100010.84;1574496;88;25792;-68
2022/04/04 01:03:54;;;;;;;13.43;6.55;;;;;;;0.66;52.03;100019.84;1582175;87;25660;-68
2022/04/04 01:06:21;;;;;;;11.85;6.28;;;;;;;0.62;52.01;100011.29;1581805;89;25886;-68
2022/04/04 01:08:47;;;;;;;12.03;6.65;;;;;;;0.59;52.19;100013.11;1583212;88;27340;-68
2022/04/04 01:11:13;;;;;;;10.60;5.62;;;;;;;0.54;52.25;100003.20;1589141;88;25951;-68
2022/04/04 01:13:48;;;;;;;13.90;6.42;;;;;;;0.49;52.03;100007.14;1581221;88;25856;-68
2022/04/04 01:16:15;;;;;;;11.97;6.40;;;;;;;0.44;52.25;100007.88;1578721;88;25801;-68
2022/04/04 01:18:42;;;;;;;15.10;6.30;;;;;;;0.39;52.23;99998.50;1594792;88;25836;-68
2022/04/04 01:21:10;;;;;;;12.53;6.03;;;;;;;0.35;52.16;100000.86;1582124;88;27362;-68
2022/04/04 01:23:42;;;;;;;10.80;7.00;;;;;;;0.30;52.43;100003.45;1598551;88;25582;-68
2022/04/04 01:26:12;;;;;;;16.15;7.03;;;;;;;0.25;52.38;100005.27;1589077;88;25517;-68
2022/04/04 01:28:40;;;;;;;11.30;6.35;;;;;;;0.22;52.55;99996.44;1588826;88;25627;-68
2022/04/04 01:31:07;;;;;;;11.65;6.50;;;;;;;0.18;52.92;99998.79;1594982;88;25867;-68
2022/04/04 01:33:34;;;;;;;12.60;6.53;;;;;;;0.13;52.88;99999.52;1592960;88;27412;-68
2022/04/04 01:36:00;;;;;;;8.75;5.62;;;;;;;0.08;52.45;99996.00;1580925;88;25894;-68
2022/04/04 01:38:27;;;;;;;11.63;6.67;;;;;;;0.03;53.21;99993.28;1587886;88;25517;-69
2022/04/04 01:40:54;;;;;;;11.75;6.72;;;;;;;0.00;53.27;99993.26;1579905;88;25847;-69
2022/04/04 01:43:20;;;;;;;11.83;5.78;;;;;;;-0.04;52.81;99983.61;1599901;87;25557;-69
2022/04/04 01:48:36;;;;;;;11.40;5.85;;;;;;;-0.12;53.01;99982.73;1579661;87;25882;-69
2022/04/04 01:51:04;;;;;;;13.08;5.97;;;;;;;-0.17;53.10;99984.50;1586520;89;25897;-69
2022/04/04 01:53:32;;;;;;;12.55;6.22;;;;;;;-0.22;53.16;99981.27;1581219;88;25626;-69
2022/04/04 01:56:03;;;;;;;11.93;7.08;;;;;;;-0.26;53.21;99972.95;1574922;88;25538;-69
2022/04/04 01:58:31;;;;;;;10.80;5.65;;;;;;;-0.31;53.08;99968.89;1587445;89;27395;-69
2022/04/04 02:01:00;;;;;;;11.68;6.50;;;;;;;-0.36;53.03;99967.48;1599712;88;25890;-69
2022/04/04 02:03:25;;;;;;;11.63;6.15;;;;;;;-0.39;53.34;99966.67;1588525;87;25608;-69
2022/04/04 02:05:52;;;;;;;12.33;5.92;;;;;;;-0.44;53.39;99958.62;1594816;87;25710;-69
2022/04/04 02:08:18;;;;;;;13.08;6.37;;;;;;;-0.50;53.38;99960.39;1605610;88;25727;-69
2022/04/04 02:10:44;;;;;;;10.93;6.28;;;;;;;-0.55;53.46;99957.66;1592650;88;27345;-69
2022/04/04 02:13:11;;;;;;;14.63;6.53;;;;;;;-0.62;53.63;99951.71;1608181;87;25780;-69
2022/04/04 02:15:38;;;;;;;16.23;7.00;;;;;;;-0.67;53.42;99951.10;1589702;87;25923;-69
2022/04/04 02:18:04;;;;;;;12.65;6.75;;;;;;;-0.71;53.68;99956.63;1610945;88;26043;-69
2022/04/04 02:20:31;;;;;;;12.28;5.75;;;;;;;-0.77;53.94;99953.10;1598220;87;25850;-69
2022/04/04 02:22:58;;;;;;;17.37;7.35;;;;;;;-0.81;53.97;99946.64;1598196;88;27364;-69
2022/04/04 02:25:25;;;;;;;11.45;6.40;;;;;;;-0.85;54.36;99944.70;1598885;88;25861;-69
2022/04/04 02:27:51;;;;;;;11.35;6.67;;;;;;;-0.90;54.38;99941.47;1599719;88;25913;-69
2022/04/04 02:30:17;;;;;;;12.50;6.70;;;;;;;-0.94;54.79;99939.00;1588842;88;27831;-69
2022/04/04 02:32:44;;;;;;;14.55;6.50;;;;;;;-0.98;54.45;99936.55;1573303;89;25494;-69
2022/04/04 02:35:10;;;;;;;10.90;6.60;;;;;;;-1.04;54.84;99938.33;1588720;89;27392;-69
2022/04/04 02:37:36;;;;;;;11.12;6.35;;;;;;;-1.04;55.14;99948.13;1595191;89;25511;-69
2022/04/04 02:40:05;;;;;;;13.15;6.65;;;;;;;-1.07;54.92;99942.79;1590752;89;25717;-69
2022/04/04 02:42:32;;;;;;;12.60;6.40;;;;;;;-1.09;55.27;99935.59;1598381;88;25960;-69
2022/04/04 02:44:58;;;;;;;12.28;6.42;;;;;;;-1.12;55.10;99936.06;1544476;91;25541;-69
2022/04/04 02:47:25;;;;;;;13.10;7.10;;;;;;;-1.16;55.32;99928.28;1572708;89;27408;-69
2022/04/04 02:49:51;;;;;;;12.35;7.12;;;;;;;-1.21;55.28;99927.70;1577437;89;25506;-68
2022/04/04 02:52:18;;;;;;;11.80;7.05;;;;;;;-1.23;55.52;99931.63;1533605;91;25881;-68
2022/04/04 02:54:44;;;;;;;13.60;6.62;;;;;;;-1.26;55.83;99920.15;1585315;89;25710;-68
2022/04/04 02:57:10;;;;;;;12.03;6.60;;;;;;;-1.30;56.28;99921.69;1584711;89;25509;-68
2022/04/04 02:59:37;;;;;;;12.73;7.30;;;;;;;-1.36;55.96;99918.95;1591221;89;29492;-68
2022/04/04 03:02:05;;;;;;;14.18;6.55;;;;;;;-1.37;56.15;99917.85;1588796;89;25854;-68
2022/04/04 03:04:31;;;;;;;13.35;7.17;;;;;;;-1.43;56.01;99913.48;1578822;89;25886;-69
2022/04/04 03:06:57;;;;;;;10.85;6.87;;;;;;;-1.45;56.11;99908.95;1591310;89;25880;-69
2022/04/04 03:09:23;;;;;;;13.32;6.78;;;;;;;-1.48;56.25;99912.91;1581167;89;25493;-69
2022/04/04 03:11:50;;;;;;;15.88;7.15;;;;;;;-1.51;56.26;99911.52;1582484;89;27374;-68
2022/04/04 03:14:17;;;;;;;15.08;6.87;;;;;;;-1.55;56.42;99914.37;1578748;89;27264;-68
2022/04/04 03:16:44;;;;;;;13.22;7.05;;;;;;;-1.59;56.91;99921.17;1600735;89;25489;-68
2022/04/04 03:19:10;;;;;;;10.45;6.83;;;;;;;-1.63;56.64;99917.41;1600785;89;27909;-68
2022/04/04 03:21:36;;;;;;;11.10;7.05;;;;;;;-1.64;56.81;99914.45;1589296;89;25828;-68
2022/04/04 03:24:05;;;;;;;11.73;7.08;;;;;;;-1.65;57.24;99912.86;1578622;89;28061;-68
2022/04/04 03:26:32;;;;;;;11.43;6.20;;;;;;;-1.66;57.08;99905.14;1586611;89;25465;-68
2022/04/04 03:28:59;;;;;;;14.93;7.30;;;;;;;-1.68;56.96;99909.35;1578368;89;25539;-68
2022/04/04 03:31:25;;;;;;;12.65;7.62;;;;;;;-1.66;57.31;99909.12;1598785;89;25540;-68
2022/04/04 03:33:51;;;;;;;11.53;7.22;;;;;;;-1.67;57.16;99910.14;1582092;89;25520;-68
2022/04/04 03:36:18;;;;;;;14.60;7.62;;;;;;;-1.68;57.33;99905.91;1584068;89;27455;-68
2022/04/04 03:38:44;;;;;;;13.15;7.72;;;;;;;-1.68;57.22;99906.70;1583904;89;25850;-68
2022/04/04 03:41:10;;;;;;;12.85;7.58;;;;;;;-1.66;57.30;99905.94;1593760;89;25450;-68
2022/04/04 03:43:36;;;;;;;16.30;6.85;;;;;;;-1.65;57.39;99904.08;1583975;89;25552;-68
2022/04/04 03:46:03;;;;;;;11.08;7.00;;;;;;;-1.66;57.52;99902.48;1588116;89;25426;-68
2022/04/04 03:48:29;;;;;;;13.28;7.40;;;;;;;-1.67;57.37;99906.17;1592267;89;29604;-68
2022/04/04 03:50:56;;;;;;;15.48;7.75;;;;;;;-1.67;57.42;99895.56;1580396;89;25841;-68
2022/04/04 03:53:23;;;;;;;12.95;7.05;;;;;;;-1.67;57.82;99888.93;1591300;89;25751;-68
2022/04/04 03:55:50;;;;;;;15.40;7.53;;;;;;;-1.68;57.86;99896.09;1592860;89;25890;-68
2022/04/04 03:58:17;;;;;;;12.98;7.37;;;;;;;-1.67;57.88;99892.91;1588023;89;25901;-68
2022/04/04 04:00:44;;;;;;;15.72;7.87;;;;;;;-1.67;57.99;99886.28;1589283;89;27331;-68
2022/04/04 04:03:10;;;;;;;15.48;7.25;;;;;;;-1.66;57.58;99894.53;1579424;89;25781;-68
2022/04/04 04:05:37;;;;;;;17.77;8.68;;;;;;;-1.66;57.71;99892.67;1585659;88;25919;-68
2022/04/04 04:08:06;;;;;;;13.13;7.75;;;;;;;-1.65;57.48;99893.47;1608255;87;26354;-68
2022/04/04 04:10:33;;;;;;;13.53;6.67;;;;;;;-1.64;58.09;99883.95;1586665;88;25463;-68
2022/04/04 04:13:02;;;;;;;15.48;6.67;;;;;;;-1.63;57.91;99877.62;1587139;88;27267;-68
2022/04/04 04:15:27;;;;;;;13.22;7.72;;;;;;;-1.62;58.05;99879.73;1590408;88;25709;-68
2022/04/04 04:17:54;;;;;;;13.95;6.95;;;;;;;-1.60;57.97;99877.14;1581967;88;25790;-68
2022/04/04 04:20:23;;;;;;;16.02;7.85;;;;;;;-1.58;58.17;99883.54;1588423;88;25614;-68
2022/04/04 04:22:57;;;;;;;10.03;6.45;;;;;;;-1.57;58.12;99871.87;1586784;89;25786;-68
2022/04/04 04:25:27;;;;;;;12.37;6.78;;;;;;;-1.52;58.42;99881.24;1540751;90;28004;-69
2022/04/04 04:27:57;;;;;;;13.60;8.05;;;;;;;-1.49;58.41;99875.47;1585628;89;25788;-69
2022/04/04 04:30:23;;;;;;;13.35;7.40;;;;;;;-1.43;58.71;99878.50;1585391;89;25487;-69
2022/04/04 04:32:53;;;;;;;10.93;6.67;;;;;;;-1.38;58.56;99881.23;1581141;89;25633;-69
2022/04/04 04:35:20;;;;;;;;;;;;;;;-1.34;58.49;99877.05;1595104;88;25521;-69
2022/04/04 04:37:47;;;;;;;16.37;7.00;;;;;;;-1.28;59.00;99878.45;1591757;88;27998;-69
2022/04/04 04:40:14;;;;;;;13.83;7.05;;;;;;;-1.24;58.67;99873.77;1585443;88;25506;-69
2022/04/04 04:42:43;;;;;;;15.45;7.70;;;;;;;-1.19;58.67;99875.67;1594318;88;25775;-69
2022/04/04 04:45:12;;;;;;;11.88;7.20;;;;;;;-1.14;58.63;99869.15;1583956;89;25901;-69
2022/04/04 04:47:40;;;;;;;15.45;7.35;;;;;;;-1.09;58.90;99880.34;1592557;88;25458;-69
2022/04/04 04:50:08;;;;;;;11.48;6.87;;;;;;;-1.04;58.50;99870.63;1586337;88;27301;-69
2022/04/04 04:52:35;;;;;;;14.40;7.47;;;;;;;-0.99;58.68;99877.34;1584228;88;25851;-69
2022/04/04 04:55:04;;;;;;;13.75;7.40;;;;;;;-0.93;58.58;99876.09;1602530;88;25520;-69
2022/04/04 04:57:32;;;;;;;14.45;8.05;;;;;;;-0.89;58.96;99878.00;1546150;91;25919;-69
2022/04/04 05:00:02;;;;;;;13.80;7.53;;;;;;;-0.85;58.64;99876.48;1537754;91;25582;-68
2022/04/04 05:02:27;;;;;;;15.00;7.60;;;;;;;-0.83;58.72;99878.91;1546422;91;27433;-68
2022/04/04 05:04:54;;;;;;;15.95;8.73;;;;;;;-0.79;58.60;99873.38;1530518;92;25852;-68
2022/04/04 05:07:20;;;;;;;14.33;7.78;;;;;;;-0.74;58.55;99877.43;1531430;92;25936;-69
2022/04/04 05:09:47;;;;;;;12.80;7.75;;;;;;;-0.71;58.63;99870.84;1532206;92;25732;-69
2022/04/04 05:12:14;;;;;;;13.83;8.28;;;;;;;-0.68;58.65;99875.64;1590909;89;25575;-68
2022/04/04 05:14:40;;;;;;;15.95;8.70;;;;;;;-0.64;59.24;99880.76;1593569;89;27354;-68
2022/04/04 05:17:06;;;;;;;18.00;8.05;;;;;;;-0.62;59.04;99884.77;1584286;89;26508;-68
2022/04/04 05:19:33;;;;;;;19.62;9.25;;;;;;;-0.59;58.91;99884.28;1580488;89;25449;-69
2022/04/04 05:21:59;;;;;;;13.25;8.15;;;;;;;-0.55;58.94;99889.91;1586730;89;25593;-69
2022/04/04 05:24:27;;;;;;;16.73;9.05;;;;;;;-0.52;59.73;99893.41;1575774;89;25825;-68
2022/04/04 05:26:56;;;;;;;15.05;9.05;;;;;;;-0.49;59.16;99888.94;1584462;89;27346;-68
2022/04/04 05:29:26;;;;;;;15.68;9.38;;;;;;;-0.46;59.68;99880.48;1585316;89;25697;-68
2022/04/04 05:31:51;;;;;;;15.23;8.93;;;;;;;-0.42;59.88;99882.91;1560266;89;35008;-68
2022/04/04 05:34:17;;;;;;;16.82;9.13;;;;;;;-0.38;59.94;99885.88;1569649;90;25541;-68
2022/04/04 05:36:44;;;;;;;15.75;9.10;;;;;;;-0.34;59.87;99893.66;1587092;89;25509;-68
2022/04/04 05:39:10;;;;;;;16.48;8.88;;;;;;;-0.30;59.36;99883.33;1590580;89;29455;-68
2022/04/04 05:41:37;;;;;;;16.20;9.05;;;;;;;-0.25;59.77;99879.41;1582558;89;25918;-68
2022/04/04 05:44:06;;;;;;;13.70;7.87;;;;;;;-0.22;59.62;99874.94;1579721;89;25889;-68
2022/04/04 05:46:33;;;;;;;16.23;8.30;;;;;;;-0.18;59.95;99874.70;1578709;89;25623;-68
2022/04/04 05:49:01;;;;;;;17.23;9.43;;;;;;;-0.15;60.38;99884.85;1578063;89;26093;-68
2022/04/04 05:51:28;;;;;;;15.68;8.78;;;;;;;-0.10;60.10;99881.42;1574072;89;27348;-68
2022/04/04 05:53:55;;;;;;;15.32;9.08;;;;;;;-0.05;60.25;99881.48;1577229;89;25458;-68
2022/04/04 05:56:22;;;;;;;13.28;8.60;;;;;;;-0.04;60.06;99875.92;1586196;89;25836;-68
2022/04/04 05:58:50;;;;;;;14.60;9.00;;;;;;;-0.02;60.07;99871.19;1593752;89;25807;-69
2022/04/04 06:01:17;;;;;;;13.62;9.05;;;;;;;-0.02;61.87;99861.88;1584350;89;25443;-69
2022/04/04 06:03:44;;;;;;;14.68;9.73;;;;;;;-0.03;61.19;99882.06;1586611;89;27399;-68
2022/04/04 06:06:10;;;;;;;18.85;9.73;;;;;;;-0.02;61.45;99854.41;1592381;89;25791;-68
2022/04/04 06:08:37;;;;;;;16.00;9.40;;;;;;;0.05;61.55;99859.53;1582478;89;25783;-69
2022/04/04 06:11:04;;;;;;;17.12;10.72;;;;;;;0.20;62.29;99865.02;1585374;89;27728;-68
2022/04/04 06:13:31;;;;;;;15.25;9.35;;;;;;;0.41;62.12;99868.70;1546643;89;25884;-68
2022/04/04 06:15:58;;;;;;;16.57;10.08;;;;;;;0.65;61.57;99853.73;1589477;89;27361;-68
2022/04/04 06:18:25;;;;;;;15.38;9.35;;;;;;;0.84;61.63;99848.83;1588333;89;25529;-69
2022/04/04 06:20:51;;;;;;;15.05;10.23;;;;;;;0.98;62.11;99846.52;1589065;89;25595;-69
2022/04/04 06:23:18;;;;;;;15.35;10.48;;;;;;;1.00;62.51;99858.51;1599473;89;25883;-69
2022/04/04 06:25:48;;;;;;;22.77;10.60;;;;;;;0.99;61.93;99854.77;1586677;89;25844;-69
2022/04/04 06:28:13;;;;;;;18.30;9.28;;;;;;;0.96;62.02;99851.31;1597699;88;27730;-69
2022/04/04 06:30:41;;;;;;;14.30;10.23;;;;;;;0.95;62.45;99855.02;1624679;88;25901;-69
2022/04/04 06:33:09;;;;;;;19.15;10.82;;;;;;;0.91;63.34;99861.38;1607989;87;25514;-69
2022/04/04 06:35:36;;;;;;;16.50;9.83;;;;;;;0.88;63.87;99861.89;1608350;88;27072;-69
2022/04/04 06:38:02;;;;;;;17.23;10.30;;;;;;;0.84;64.65;99862.14;1610091;87;25419;-69
2022/04/04 06:40:32;;;;;;;17.40;9.88;;;;;;;0.78;64.65;99851.16;1606745;87;27300;-69
2022/04/04 06:43:00;;;;;;;13.88;8.93;;;;;;;0.72;64.25;99859.11;1613130;87;25473;-69
2022/04/04 06:45:28;;;;;;;17.80;9.90;;;;;;;0.68;65.47;99866.01;1610078;88;25581;-69
2022/04/04 06:47:55;;;;;;;19.73;12.07;;;;;;;0.55;67.43;99862.43;1619104;88;26331;-69
2022/04/04 06:50:23;;;;;;;23.62;12.37;;;;;;;0.40;68.38;99871.06;1603852;88;25806;-69
2022/04/04 06:52:52;;;;;;;16.02;10.20;;;;;;;0.28;67.67;99869.88;1598781;87;27338;-69
2022/04/04 06:55:19;;;;;;;20.25;11.63;;;;;;;0.20;68.06;99875.65;1609061;87;25466;-69
2022/04/04 06:57:46;;;;;;;17.12;11.33;;;;;;;0.13;69.52;99877.70;1616720;87;25908;-69
2022/04/04 07:00:16;;;;;;;22.58;12.40;;;;;;;0.07;69.91;99871.54;1604005;87;25689;-69
2022/04/04 07:02:44;;;;;;;;;;;;;;;0.04;73.64;99876.02;1592552;88;25848;-69
2022/04/04 07:05:10;;;;;;;17.25;11.38;;;;;;;0.02;73.24;99864.84;1587670;89;28001;-69
2022/04/04 07:07:37;;;;;;;21.25;12.65;;;;;;;0.05;72.50;99863.02;1610001;87;25464;-69
2022/04/04 07:10:05;;;;;;;18.80;11.63;;;;;;;0.09;71.64;99870.76;1613194;87;25841;-69
2022/04/04 07:12:33;;;;;;;16.75;12.23;;;;;;;0.14;72.28;99866.03;1558290;90;25902;-69
2022/04/04 07:15:00;;;;;;;20.00;12.43;;;;;;;0.18;72.10;99877.23;1561061;90;25523;-69
2022/04/04 07:17:27;;;;;;;20.90;13.25;;;;;;;0.22;72.77;99867.42;1613492;87;27352;-69
2022/04/04 07:19:54;;;;;;;20.12;13.53;;;;;;;0.28;73.30;99863.23;1632212;87;25978;-69
2022/04/04 07:22:21;;;;;;;20.95;13.68;;;;;;;0.40;72.43;99856.97;1610591;87;25834;-69
2022/04/04 07:24:48;;;;;;;21.87;13.03;;;;;;;0.51;72.28;99849.33;1598701;87;27817;-69
2022/04/04 07:27:16;;;;;;;21.50;13.22;;;;;;;0.64;71.83;99854.24;1605951;87;25812;-69
2022/04/04 07:29:42;;;;;;;20.27;12.55;;;;;;;0.70;71.74;99855.91;1623341;87;27331;-69
2022/04/04 07:32:09;;;;;;;20.43;12.58;;;;;;;0.75;71.45;99849.83;1598473;87;25760;-68
2022/04/04 07:34:37;;;;;;;17.92;12.73;;;;;;;0.79;71.30;99848.78;1567888;90;25815;-68
2022/04/04 07:37:04;;;;;;;17.42;11.93;;;;;;;0.84;71.45;99840.83;1560852;90;25768;-68
2022/04/04 07:39:32;;;;;;;19.52;11.80;;;;;;;0.90;71.22;99837.95;1559864;90;25743;-68
2022/04/04 07:41:59;;;;;;;16.17;12.03;;;;;;;0.98;71.50;99837.20;1601447;88;28072;-68
2022/04/04 07:44:28;;;;;;;19.02;13.03;;;;;;;1.04;70.92;99832.16;1605592;88;25858;-68
2022/04/04 07:46:55;;;;;;;24.63;13.87;;;;;;;1.21;71.12;99827.49;1612727;87;25473;-68
2022/04/04 07:49:22;;;;;;;19.75;14.65;;;;;;;1.33;70.74;99833.13;1612348;87;26169;-68
2022/04/04 07:51:48;;;;;;;21.30;13.65;;;;;;;1.39;70.44;99828.90;1611068;88;25822;-68
2022/04/04 07:54:15;;;;;;;20.23;13.43;;;;;;;1.42;70.18;99821.72;1605099;87;27949;-68
2022/04/04 07:56:43;;;;;;;19.67;13.03;;;;;;;1.46;70.81;99811.34;1604916;87;25423;-68
2022/04/04 07:59:11;;;;;;;20.05;13.05;;;;;;;1.58;70.22;99819.13;1618176;88;25445;-68
2022/04/04 08:01:38;;;;;;;21.00;12.82;;;;;;;1.75;69.79;99814.38;1606594;88;26232;-68
2022/04/04 08:04:05;;;;;;;19.60;14.50;;;;;;;1.96;69.80;99811.77;1610676;88;25461;-68
2022/04/04 08:06:32;;;;;;;18.90;13.38;;;;;;;2.24;69.38;99807.83;1614830;87;27350;-68
2022/04/04 08:08:59;;;;;;;20.75;14.45;;;;;;;2.85;69.03;99802.23;1609889;87;25818;-68
2022/04/04 08:11:26;;;;;;;18.42;13.80;;;;;;;3.36;67.58;99796.22;1617158;87;25501;-68
2022/04/04 08:13:53;;;;;;;21.07;14.13;;;;;;;3.57;66.09;99800.70;1611119;88;25629;-68
2022/04/04 08:16:22;;;;;;;18.23;13.43;;;;;;;3.62;65.29;99798.00;1607127;87;25831;-68
2022/04/04 08:18:49;;;;;;;18.67;14.03;;;;;;;3.78;65.01;99795.52;1609026;87;27333;-69
2022/04/04 08:21:16;;;;;;;18.40;12.88;;;;;;;4.24;64.65;99787.72;1610616;87;28621;-69
2022/04/04 08:23:45;;;;;;;16.12;12.78;;;;;;;4.67;64.65;99791.41;1609376;88;25804;-69
2022/04/04 08:26:11;;;;;;;19.55;13.00;;;;;;;5.23;62.85;99796.75;1614220;88;27727;-68
2022/04/04 08:28:39;;;;;;;16.48;12.60;;;;;;;5.55;62.67;99792.64;1616353;87;25793;-68
2022/04/04 08:31:05;;;;;;;17.17;12.85;;;;;;;5.76;59.84;99788.35;1609616;87;27283;-68
2022/04/04 08:33:33;;;;;;;16.37;11.88;;;;;;;5.93;59.86;99783.27;1611007;87;25921;-68
2022/04/04 08:36:03;;;;;;;19.27;13.03;;;;;;;6.50;59.50;99775.73;1610652;87;25914;-68
2022/04/04 08:38:29;;;;;;;19.47;12.30;;;;;;;6.53;56.84;99784.55;1609315;87;26560;-68
2022/04/04 08:41:01;;;;;;;17.32;11.73;;;;;;;6.66;58.67;99773.59;1608458;87;25915;-69
2022/04/04 08:43:31;;;;;;;16.75;10.40;;;;;;;6.87;55.61;99780.75;1606359;86;27411;-68
2022/04/04 08:45:59;;;;;;;16.75;10.95;;;;;;;7.00;55.10;99781.32;1614080;86;25831;-68
2022/04/04 08:48:27;;;;;;;15.58;11.03;;;;;;;6.88;54.50;99772.95;1620305;87;25829;-69
2022/04/04 08:50:54;;;;;;;15.18;11.30;;;;;;;6.82;55.35;99769.53;1595553;88;26316;-69
2022/04/04 08:53:21;;;;;;;16.25;11.15;;;;;;;7.38;55.57;99773.61;1601836;87;25598;-68
2022/04/04 08:55:48;;;;;;;18.02;10.23;;;;;;;7.72;54.03;99761.05;1624184;88;29563;-68
2022/04/04 08:58:15;;;;;;;15.35;11.48;;;;;;;7.84;52.34;99772.08;1606944;86;25761;-68
2022/04/04 09:00:43;;;;;;;15.13;10.75;;;;;;;7.73;52.75;99772.60;1590437;89;25626;-69
2022/04/04 09:03:10;;;;;;;14.68;10.40;;;;;;;7.41;52.23;99785.13;1588190;88;25876;-68
2022/04/04 09:05:54;;;;;;;17.62;11.15;;;;;;;7.38;53.34;99770.36;1561938;89;25822;-68
2022/04/04 09:08:23;;;;;;;15.83;11.12;;;;;;;7.54;52.94;99760.62;1563984;89;27633;-66
2022/04/04 09:10:57;;;;;;;15.32;10.88;;;;;;;7.72;53.62;99742.77;1564241;90;25424;-67
2022/04/04 09:13:27;;;;;;;16.73;11.12;;;;;;;8.19;53.12;99742.75;1574594;88;25832;-67
2022/04/04 09:16:01;;;;;;;16.12;10.05;;;;;;;8.43;52.54;99724.69;1606509;87;26189;-67
2022/04/04 09:18:49;;;;;;;15.53;11.43;;;;;;;8.76;52.29;99719.23;1591043;88;25926;-66
2022/04/04 09:21:25;;;;;;;19.02;10.58;;;;;;;8.52;50.93;99735.77;1587000;89;27315;-67
2022/04/04 09:23:58;;;;;;;14.55;10.90;;;;;;;8.08;50.50;99729.83;1592015;88;25889;-67
2022/04/04 09:26:43;;;;;;;13.83;10.50;;;;;;;7.93;51.18;99726.93;1606915;87;25547;-68
2022/04/04 09:29:20;;;;;;;12.58;10.05;;;;;;;7.73;50.59;99719.58;1599150;88;25639;-68
2022/04/04 09:32:05;;;;;;;14.80;11.20;;;;;;;7.50;50.71;99708.52;1604232;88;25521;-67
2022/04/04 09:34:30;;;;;;;15.35;10.60;;;;;;;7.62;50.73;99706.88;1587217;87;27356;-69
2022/04/04 09:36:58;;;;;;;13.75;10.55;;;;;;;7.54;50.58;99702.20;1589610;88;25744;-68
2022/04/04 09:39:25;;;;;;;16.23;10.60;;;;;;;7.24;50.83;99703.13;1586254;88;25669;-67
2022/04/04 09:41:52;;;;;;;14.07;10.98;;;;;;;6.95;51.30;99700.75;1592018;87;25875;-68
2022/04/04 09:44:25;;;;;;;15.78;10.72;;;;;;;6.90;51.99;99692.23;1582646;88;26207;-69
2022/04/04 09:46:50;;;;;;;15.60;11.28;;;;;;;6.88;51.85;99693.08;1602858;88;27432;-67
2022/04/04 09:49:22;;;;;;;16.02;11.22;;;;;;;6.89;51.89;99676.39;1582329;88;25859;-68
2022/04/04 09:51:53;;;;;;;16.95;10.85;;;;;;;6.93;52.19;99676.06;1574828;89;25449;-67
2022/04/04 09:54:29;;;;;;;16.23;12.25;;;;;;;7.15;52.59;99684.76;1589046;89;26231;-67
2022/04/04 09:57:17;;;;;;;15.88;11.73;;;;;;;7.15;51.15;99673.19;1589192;89;25485;-67
2022/04/04 09:59:44;;;;;;;15.60;10.85;;;;;;;7.07;52.09;99666.08;1588849;89;27323;-67
2022/04/04 10:02:13;;;;;;;14.38;10.90;;;;;;;6.91;51.41;99670.16;1580284;88;25773;-67
2022/04/04 10:04:46;;;;;;;15.03;10.05;;;;;;;6.65;52.02;99659.91;1603113;89;25783;-67
2022/04/04 10:07:18;;;;;;;16.20;11.68;;;;;;;6.48;52.16;99647.05;1590353;88;25912;-66
2022/04/04 10:09:46;;;;;;;11.50;9.45;;;;;;;6.66;52.33;99651.31;1591176;89;25845;-67
2022/04/04 10:12:14;;;;;;;14.80;10.68;;;;;;;7.03;52.73;99648.97;1593669;87;27356;-67
2022/04/04 10:14:42;;;;;;;19.45;12.18;;;;;;;7.26;52.15;99644.42;1588339;88;25588;-67
2022/04/04 10:17:11;;;;;;;15.13;11.00;;;;;;;7.13;51.42;99643.90;1591215;87;25687;-67
2022/04/04 10:19:40;;;;;;;15.70;11.03;;;;;;;6.99;50.99;99653.89;1589318;89;26362;-67
2022/04/04 10:22:08;;;;;;;14.60;10.78;;;;;;;7.04;51.13;99625.55;1552723;88;33357;-68
2022/04/04 10:24:36;;;;;;;12.93;10.00;;;;;;;6.97;51.01;99638.61;1593247;87;26867;-68
2022/04/04 10:27:03;;;;;;;14.65;10.28;;;;;;;6.81;51.07;99640.80;1600332;87;25934;-68
2022/04/04 10:29:38;;;;;;;13.05;10.08;;;;;;;6.84;51.44;99622.17;1604971;86;25619;-67
2022/04/04 10:32:09;;;;;;;13.50;10.55;;;;;;;7.04;51.72;99617.48;1580001;87;27790;-67
2022/04/04 10:34:43;;;;;;;13.08;10.48;;;;;;;7.51;51.36;99631.52;1589165;87;25693;-67
2022/04/04 10:37:10;;;;;;;13.40;10.40;;;;;;;8.25;49.90;99611.39;1571499;88;27353;-67
2022/04/04 10:39:48;;;;;;;11.75;9.53;;;;;;;8.87;47.70;99611.08;1601800;88;25858;-67
2022/04/04 10:42:37;;;;;;;13.93;9.60;;;;;;;9.87;47.70;99593.16;1569346;89;25942;-68
2022/04/04 10:45:12;;;;;;;13.75;9.30;;;;;;;10.63;45.35;99605.19;1560756;90;25867;-67
2022/04/04 10:47:43;;;;;;;14.63;9.88;;;;;;;10.46;45.48;99594.67;1564351;89;25502;-66
2022/04/04 10:50:28;;;;;;;11.70;8.80;;;;;;;11.19;45.64;99590.13;1556752;89;27364;-67
2022/04/04 10:52:58;;;;;;;11.18;9.35;;;;;;;10.98;43.62;99600.92;1601711;87;25830;-68
2022/04/04 10:55:40;;;;;;;11.50;8.60;;;;;;;10.57;42.90;99643.80;1600681;87;25548;-68
2022/04/04 10:58:15;;;;;;;13.43;9.25;;;;;;;10.14;44.16;99593.90;1594094;87;25938;-68
2022/04/04 11:00:58;;;;;;;12.80;9.58;;;;;;;10.50;44.54;99594.03;1607216;85;25699;-66
2022/04/04 11:03:34;;;;;;;13.40;9.78;;;;;;;10.52;44.56;99591.79;1613556;87;27599;-68
2022/04/04 11:09:15;;;;;;;16.97;9.65;;;;;;;9.90;44.54;99581.16;1589266;88;25704;-67
2022/04/04 11:11:54;;;;;;;13.62;8.58;;;;;;;9.58;44.49;99582.48;1627262;87;25766;-68
2022/04/04 11:14:37;;;;;;;10.05;8.45;;;;;;;8.98;44.81;99588.11;1625723;85;25619;-68
2022/04/04 11:17:19;;;;;;;9.98;8.90;;;;;;;8.81;45.46;99571.91;1605161;87;27346;-68
2022/04/04 11:19:53;;;;;;;11.38;9.50;;;;;;;8.49;46.11;99574.66;1554345;90;25538;-68
2022/04/04 11:22:27;;;;;;;13.28;9.23;;;;;;;8.20;46.91;99565.73;1556346;90;25950;-66
2022/04/04 11:25:05;;;;;;;9.68;8.28;;;;;;;8.17;46.72;99562.30;1564008;90;26195;-68
2022/04/04 11:27:34;;;;;;;13.98;8.65;;;;;;;8.20;47.82;99562.47;1566709;89;25462;-68
2022/04/04 11:30:08;;;;;;;11.10;9.03;;;;;;;8.16;47.58;99552.65;1564766;90;27359;-67
2022/04/04 11:32:40;;;;;;;10.82;7.97;;;;;;;7.85;47.69;99562.31;1571106;88;26018;-67
2022/04/04 11:35:14;;;;;;;14.40;8.68;;;;;;;7.60;48.02;99551.63;1598357;88;25879;-67
2022/04/04 11:37:51;;;;;;;11.03;7.90;;;;;;;7.41;48.42;99547.00;1604697;87;25644;-67
2022/04/04 11:40:29;;;;;;;13.68;9.30;;;;;;;7.25;49.07;99545.20;1604779;87;25897;-67